Aviation Digital Data Service (ADDS)

Output produced by METARs form (1553 UTC 15 October 2018)
found at http://aviationweather.gov/metar/data/
 
KSGR 151543Z 34013G23KT 10SM -RA OVC009 16/14 A3004 RMK AO2 WSHFT 1458 LTG DSNT NW-E RAE08B40 TSE01 CIG 007V013 P0000 T01610144
KSGR 151524Z 34016G21KT 10SM OVC010 17/16 A3004 RMK AO2 WSHFT 1458 LTG DSNT N-SE RAE08 TSE01 CIG 006V013 P0000 T01720161
KSGR 151520Z 34012G18KT 10SM VCTS OVC009 17/16 A3004 RMK AO2 WSHFT 1458 LTG DSNT N-SE RAE08 TSE01 CIG 006V013 P0000 T01720161
KSGR 151513Z 33011G22KT 10SM VCTS SCT007 BKN011 OVC017 17/16 A3003 RMK AO2 WSHFT 1458 LTG DSNT NE-SE RAE08 TSE01 P0000 T01720156
KSGR 151507Z 33013G22KT 10SM VCTS -RA BKN007 OVC016 17/16 A3003 RMK AO2 LTG DSNT E AND NW TSE01 P0000 T01720161
KSGR 151455Z 27011G19KT 240V310 3SM -TSRA BR BKN007 BKN010 OVC023 18/17 A3004 RMK AO2 LTG DSNT E AND W AND NW PRESRR P0000 T01780167
KSGR 151419Z 1514/1612 34014G24KT P6SM VCTS BKN008 OVC015CB 
     TEMPO 1514/1515 1SM +SHRA BR OVC007 
     FM151700 35016KT 6SM -SHRA OVC020 
     FM152200 01012KT P6SM OVC010 
     TEMPO 1522/1602 4SM -SHRA OVC008